Time;durP1;ratioP1;P1;durP2;ratioP2;P2;SDS_P1;SDS_P2;PMS_P1;PMS_P2;Temp;Humidity;BMP_temperature;BMP_pressure;BME280_temperature;BME280_humidity;BME280_pressure;Samples;Min_cycle;Max_cycle;Signal;HPM_P1;HPM_P2
2022/10/12 00:00:04;;;;;;;9.55;5.25;;;;;;;6.98;100.00;101191.09;5105472;28;20728;-75
2022/10/12 00:02:31;;;;;;;9.05;4.38;;;;;;;6.86;100.00;101200.22;5111728;28;20199;-74
2022/10/12 00:04:58;;;;;;;13.50;5.18;;;;;;;6.91;100.00;101198.34;5104572;28;20298;-74
2022/10/12 00:07:25;;;;;;;9.38;4.53;;;;;;;6.85;100.00;101199.34;5080718;28;20220;-75
2022/10/12 00:09:51;;;;;;;9.70;4.50;;;;;;;6.83;100.00;101195.81;5076777;28;20201;-75
2022/10/12 00:12:18;;;;;;;9.45;4.95;;;;;;;6.77;100.00;101198.59;5076793;28;20216;-75
2022/10/12 00:14:45;;;;;;;7.78;4.05;;;;;;;6.77;100.00;101200.38;5077657;28;20204;-74
2022/10/12 00:17:13;;;;;;;11.30;4.20;;;;;;;6.69;100.00;101203.19;5076252;28;20223;-74
2022/10/12 00:19:39;;;;;;;6.55;4.00;;;;;;;6.67;100.00;101202.31;5076463;28;20576;-74
2022/10/12 00:22:06;;;;;;;7.97;4.00;;;;;;;6.73;100.00;101196.00;5076872;28;20196;-74
2022/10/12 00:24:32;;;;;;;8.02;4.72;;;;;;;6.75;100.00;101197.72;5076200;28;20208;-74
2022/10/12 00:26:59;;;;;;;6.78;3.67;;;;;;;6.64;100.00;101197.03;5076994;28;20217;-75
2022/10/12 00:29:25;;;;;;;10.75;4.28;;;;;;;6.78;100.00;101192.31;5076386;28;20208;-74
2022/10/12 00:31:52;;;;;;;7.00;4.13;;;;;;;6.77;100.00;101198.59;5080016;28;20216;-74
2022/10/12 00:34:20;;;;;;;9.23;4.78;;;;;;;6.86;100.00;101197.56;5080017;28;20216;-74
2022/10/12 00:36:46;;;;;;;13.27;4.50;;;;;;;6.72;100.00;101192.44;5076906;28;20553;-75
2022/10/12 00:39:13;;;;;;;8.52;3.78;;;;;;;6.74;100.00;101189.72;5075635;28;20207;-74
2022/10/12 00:41:42;;;;;;;8.15;4.15;;;;;;;6.57;100.00;101198.03;5076485;28;20196;-74
2022/10/12 00:44:35;;;;;;;8.85;3.65;;;;;;;6.65;100.00;101193.44;5099130;28;20211;-74
2022/10/12 00:47:08;;;;;;;7.43;3.70;;;;;;;6.63;100.00;101188.13;5109004;28;20216;-74
2022/10/12 00:49:36;;;;;;;12.45;3.80;;;;;;;6.68;100.00;101191.59;5097851;28;20199;-75
2022/10/12 00:52:06;;;;;;;10.10;3.90;;;;;;;6.59;100.00;101186.38;5096165;28;20601;-75
2022/10/12 00:54:38;;;;;;;8.13;4.13;;;;;;;6.61;100.00;101181.91;5096642;28;20204;-74
2022/10/12 00:57:06;;;;;;;6.60;3.20;;;;;;;6.61;100.00;101192.59;5096301;28;20259;-76
2022/10/12 00:59:36;;;;;;;6.97;3.90;;;;;;;6.58;100.00;101195.34;5077459;28;20196;-74
2022/10/12 01:02:02;;;;;;;7.97;4.03;;;;;;;6.59;100.00;101185.50;5075756;28;20199;-74
2022/10/12 01:04:31;;;;;;;10.00;3.80;;;;;;;6.55;100.00;101190.03;5076419;28;20200;-73
2022/10/12 01:07:00;;;;;;;8.68;2.95;;;;;;;6.54;100.00;101201.66;5076581;28;20217;-74
2022/10/12 01:09:27;;;;;;;5.88;3.72;;;;;;;6.45;100.00;101197.31;5075659;28;20208;-74
2022/10/12 01:11:54;;;;;;;7.10;3.95;;;;;;;6.42;100.00;101191.13;5075644;28;20689;-75
2022/10/12 01:14:20;;;;;;;10.93;3.80;;;;;;;6.28;100.00;101195.81;5075037;28;20197;-74
2022/10/12 01:16:54;;;;;;;5.90;3.60;;;;;;;6.23;100.00;101203.91;5074673;28;20224;-75
2022/10/12 01:19:43;;;;;;;9.13;4.18;;;;;;;6.29;100.00;101201.16;5074824;28;20334;-74
2022/10/12 01:22:16;;;;;;;6.95;4.10;;;;;;;6.29;100.00;101206.50;5075823;28;20201;-73
2022/10/12 01:24:51;;;;;;;5.13;3.90;;;;;;;6.23;100.00;101201.22;5081663;28;20571;-75
2022/10/12 01:27:31;;;;;;;6.57;4.40;;;;;;;6.09;100.00;101193.41;5081973;28;20220;-75
2022/10/12 01:30:14;;;;;;;7.13;3.30;;;;;;;6.10;100.00;101196.97;5075841;28;20196;-75
2022/10/12 01:32:55;;;;;;;5.32;3.53;;;;;;;6.25;100.00;101194.94;5074585;28;20209;-75
2022/10/12 01:35:28;;;;;;;7.70;3.83;;;;;;;6.22;100.00;101196.81;5075086;28;20227;-75
2022/10/12 01:38:05;;;;;;;4.32;3.22;;;;;;;6.26;100.00;101195.81;5076080;28;20191;-75
2022/10/12 01:40:39;;;;;;;5.50;3.00;;;;;;;6.18;100.00;101181.69;5082589;28;20287;-74
2022/10/12 01:43:07;;;;;;;10.13;4.05;;;;;;;6.10;100.00;101196.97;5098536;28;20522;-74
2022/10/12 01:45:35;;;;;;;6.13;3.30;;;;;;;6.11;100.00;101188.94;5099301;28;20224;-74
2022/10/12 01:48:03;;;;;;;6.43;3.55;;;;;;;6.16;100.00;101194.22;5098144;28;20637;-75
2022/10/12 01:50:37;;;;;;;9.32;3.50;;;;;;;6.13;100.00;101175.50;5098854;28;20571;-75
2022/10/12 01:53:14;;;;;;;10.88;3.58;;;;;;;6.09;100.00;101180.03;5098026;28;20724;-74
2022/10/12 01:55:49;;;;;;;6.35;3.60;;;;;;;6.14;100.00;101179.97;5079121;28;20224;-75
2022/10/12 01:58:32;;;;;;;8.73;4.55;;;;;;;6.10;100.00;101181.78;5077450;28;20255;-75
2022/10/12 02:01:10;;;;;;;6.50;3.10;;;;;;;6.17;100.00;101175.47;5078089;28;20561;-74
2022/10/12 02:03:44;;;;;;;9.43;3.67;;;;;;;6.17;100.00;101174.56;5074373;28;20192;-75
2022/10/12 02:06:15;;;;;;;7.60;3.80;;;;;;;5.95;100.00;101169.53;5074228;28;20220;-75
2022/10/12 02:08:47;;;;;;;6.93;4.13;;;;;;;5.97;100.00;101174.84;5074764;28;20192;-75
2022/10/12 02:11:17;;;;;;;11.57;3.80;;;;;;;5.98;100.00;101171.28;5074346;28;20204;-74
2022/10/12 02:13:47;;;;;;;11.07;3.30;;;;;;;5.90;100.00;101174.03;5073384;28;20200;-74
2022/10/12 02:16:19;;;;;;;5.95;3.85;;;;;;;5.91;100.00;101167.78;5074029;28;20228;-73
2022/10/12 02:18:50;;;;;;;6.32;3.70;;;;;;;5.84;100.00;101164.31;5074095;28;20184;-74
2022/10/12 02:21:24;;;;;;;9.07;3.92;;;;;;;5.73;100.00;101160.88;5082023;28;20184;-75
2022/10/12 02:23:54;;;;;;;8.20;3.95;;;;;;;5.74;100.00;101161.75;5103766;28;20230;-74
2022/10/12 02:26:21;;;;;;;5.85;4.10;;;;;;;5.82;100.00;101165.22;5094181;28;20302;-75
2022/10/12 02:28:49;;;;;;;5.75;3.50;;;;;;;5.80;100.00;101165.25;5095057;28;20269;-74
2022/10/12 02:31:28;;;;;;;6.20;3.70;;;;;;;5.69;100.00;101153.81;5111866;28;22149;-75
2022/10/12 02:34:00;;;;;;;6.65;3.72;;;;;;;5.69;100.00;101150.25;5110934;28;20265;-74
2022/10/12 02:36:32;;;;;;;9.65;4.78;;;;;;;5.69;100.00;101153.81;5085789;28;20227;-74
2022/10/12 02:39:05;;;;;;;5.78;3.90;;;;;;;5.69;100.00;101147.59;5074035;28;20560;-75
2022/10/12 02:41:38;;;;;;;7.18;3.75;;;;;;;5.77;100.00;101140.34;5075817;28;20181;-74
2022/10/12 02:44:10;;;;;;;8.40;4.53;;;;;;;5.75;100.00;101143.03;5077187;28;20210;-75
2022/10/12 02:46:40;;;;;;;7.05;4.40;;;;;;;5.55;100.00;101140.63;5073716;28;20221;-75
2022/10/12 02:49:08;;;;;;;7.40;3.35;;;;;;;5.72;100.00;101136.84;5073335;28;20203;-74
2022/10/12 02:51:36;;;;;;;6.25;3.85;;;;;;;5.68;100.00;101138.69;5073443;28;20231;-75
2022/10/12 02:54:03;;;;;;;6.78;4.05;;;;;;;5.70;100.00;101144.00;5073900;28;20189;-75
2022/10/12 02:56:29;;;;;;;5.53;3.38;;;;;;;5.73;100.00;101143.97;5075804;28;20406;-75
2022/10/12 02:58:56;;;;;;;6.60;3.60;;;;;;;5.71;100.00;101138.63;5083417;28;20196;-74
2022/10/12 03:01:23;;;;;;;8.07;4.30;;;;;;;5.49;100.00;101148.72;5082094;28;20235;-76
2022/10/12 03:03:51;;;;;;;8.13;3.92;;;;;;;5.39;100.00;101139.94;5079925;28;20283;-74
2022/10/12 03:06:18;;;;;;;8.50;4.20;;;;;;;5.52;100.00;101138.00;5081038;28;20246;-73
2022/10/12 03:08:45;;;;;;;7.00;4.10;;;;;;;5.58;100.00;101131.69;5078525;28;20230;-75
2022/10/12 03:11:13;;;;;;;10.02;3.65;;;;;;;5.58;100.00;101137.91;5076917;28;20207;-74
2022/10/12 03:13:40;;;;;;;5.97;3.60;;;;;;;5.57;100.00;101138.81;5080048;28;20219;-74
2022/10/12 03:16:09;;;;;;;8.68;4.03;;;;;;;5.47;100.00;101144.31;5073559;28;20217;-75
2022/10/12 03:18:38;;;;;;;7.85;3.78;;;;;;;5.55;100.00;101145.09;5074180;28;20210;-75
2022/10/12 03:21:06;;;;;;;10.45;4.35;;;;;;;5.43;100.00;101147.03;5081861;28;20195;-75
2022/10/12 03:23:33;;;;;;;6.40;3.63;;;;;;;5.50;100.00;101154.97;5074595;28;20199;-76
2022/10/12 03:25:59;;;;;;;8.02;3.55;;;;;;;5.41;100.00;101148.81;5075403;28;20228;-75
2022/10/12 03:28:26;;;;;;;8.82;3.78;;;;;;;5.42;100.00;101155.91;5083875;28;20207;-73
2022/10/12 03:30:52;;;;;;;9.88;4.00;;;;;;;5.36;100.00;101149.75;5094737;28;20203;-75
2022/10/12 03:33:19;;;;;;;26.88;15.38;;;;;;;5.34;100.00;101155.16;5111872;28;20224;-74
2022/10/12 03:35:46;;;;;;;12.32;6.35;;;;;;;5.35;100.00;101153.34;5114089;28;20220;-74
2022/10/12 03:38:14;;;;;;;6.75;3.78;;;;;;;5.27;100.00;101150.78;5114974;28;20263;-74
2022/10/12 03:40:41;;;;;;;6.82;4.03;;;;;;;5.25;100.00;101149.91;5107075;28;20188;-76
2022/10/12 03:43:08;;;;;;;11.52;4.30;;;;;;;5.22;100.00;101152.59;5115982;28;20275;-75
2022/10/12 03:45:35;;;;;;;6.20;2.92;;;;;;;5.34;100.00;101148.94;5115883;28;20229;-74
2022/10/12 03:48:02;;;;;;;8.10;3.90;;;;;;;5.27;100.00;101158.81;5100435;28;20218;-76
2022/10/12 03:50:29;;;;;;;7.85;4.20;;;;;;;5.08;100.00;101152.75;5098247;28;20207;-74
2022/10/12 03:52:55;;;;;;;12.30;7.35;;;;;;;5.14;100.00;101150.03;5097437;28;20314;-76
2022/10/12 03:55:23;;;;;;;10.57;5.22;;;;;;;5.13;100.00;101144.69;5089979;28;20195;-76
2022/10/12 03:57:50;;;;;;;6.15;3.80;;;;;;;5.23;100.00;101149.91;5077275;28;20215;-75
2022/10/12 04:00:16;;;;;;;6.22;4.07;;;;;;;5.32;100.00;101148.94;5077354;28;20204;-75
2022/10/12 04:02:43;;;;;;;16.50;11.93;;;;;;;5.32;100.00;101148.06;5077256;28;20196;-74
2022/10/12 04:05:10;;;;;;;19.65;12.00;;;;;;;5.28;100.00;101147.19;5078275;28;20204;-75
2022/10/12 04:07:36;;;;;;;8.80;5.55;;;;;;;5.24;100.00;101150.78;5078291;28;20203;-74
2022/10/12 04:10:03;;;;;;;11.38;4.25;;;;;;;5.12;100.00;101143.81;5091342;28;20192;-75
2022/10/12 04:12:31;;;;;;;6.00;4.03;;;;;;;5.31;100.00;101155.16;5096832;28;20727;-76
2022/10/12 04:14:58;;;;;;;18.10;4.15;;;;;;;5.30;100.00;101152.53;5091246;28;20691;-75
2022/10/12 04:17:24;;;;;;;8.73;4.10;;;;;;;5.32;100.00;101151.59;5096369;28;20725;-75
2022/10/12 04:19:51;;;;;;;11.13;5.70;;;;;;;5.16;100.00;101153.56;5096539;28;20207;-74
2022/10/12 04:22:18;;;;;;;8.73;5.30;;;;;;;5.22;100.00;101144.59;5096938;28;20209;-74
2022/10/12 04:24:44;;;;;;;11.10;4.18;;;;;;;5.23;100.00;101144.59;5097051;28;20687;-75
2022/10/12 04:27:11;;;;;;;11.43;4.80;;;;;;;5.25;100.00;101141.03;5084828;28;20239;-76
2022/10/12 04:29:38;;;;;;;8.00;3.63;;;;;;;5.26;100.00;101153.47;5094473;28;20207;-75
2022/10/12 04:32:05;;;;;;;7.72;4.28;;;;;;;5.26;100.00;101154.34;5096525;28;20231;-76
2022/10/12 04:34:32;;;;;;;6.88;3.70;;;;;;;5.15;100.00;101156.25;5095706;28;20200;-75
2022/10/12 04:36:58;;;;;;;7.07;4.18;;;;;;;5.34;100.00;101156.94;5096010;28;20288;-74
2022/10/12 04:39:25;;;;;;;7.28;4.00;;;;;;;5.46;100.00;101158.56;5096113;28;20229;-75
2022/10/12 04:41:51;;;;;;;23.95;15.30;;;;;;;5.54;100.00;101149.56;5096003;28;20230;-74
2022/10/12 04:44:18;;;;;;;12.30;7.63;;;;;;;5.58;100.00;101155.75;5095894;28;20210;-74
2022/10/12 04:46:46;;;;;;;13.77;8.88;;;;;;;5.50;100.00;101157.66;5095545;28;20302;-75
2022/10/12 04:49:12;;;;;;;7.90;4.10;;;;;;;5.36;100.00;101166.69;5095033;28;20196;-73
2022/10/12 04:51:39;;;;;;;7.25;4.35;;;;;;;5.27;100.00;101164.13;5096439;28;20198;-74
2022/10/12 04:54:06;;;;;;;6.70;3.80;;;;;;;5.20;100.00;101170.41;5098208;28;20281;-75
2022/10/12 04:56:32;;;;;;;7.63;4.35;;;;;;;5.18;100.00;101167.78;5096976;28;20626;-74
2022/10/12 04:58:59;;;;;;;8.70;4.63;;;;;;;5.11;100.00;101159.84;5098549;28;20206;-74
2022/10/12 05:01:25;;;;;;;7.20;3.90;;;;;;;5.07;100.00;101163.47;5099175;28;20223;-74
2022/10/12 05:03:53;;;;;;;7.95;4.10;;;;;;;5.09;100.00;101170.56;5099859;28;20191;-74
2022/10/12 05:06:20;;;;;;;8.88;4.90;;;;;;;5.07;100.00;101166.16;5101783;28;20228;-75
2022/10/12 05:08:46;;;;;;;10.45;4.80;;;;;;;4.99;100.00;101174.22;5101777;28;20282;-74
2022/10/12 05:11:13;;;;;;;13.10;4.63;;;;;;;5.06;100.00;101170.56;5105893;28;20210;-73
2022/10/12 05:13:40;;;;;;;12.13;5.13;;;;;;;5.23;100.00;101162.41;5099120;28;20216;-74
2022/10/12 05:16:07;;;;;;;14.38;8.50;;;;;;;5.36;100.00;101165.78;5095321;28;20314;-75
2022/10/12 05:18:33;;;;;;;19.20;9.68;;;;;;;5.38;100.00;101170.25;5106599;28;20287;-74
2022/10/12 05:21:01;;;;;;;9.60;5.40;;;;;;;5.40;100.00;101164.84;5098765;28;20206;-76
2022/10/12 05:23:28;;;;;;;6.22;3.83;;;;;;;5.33;100.00;101161.38;5103780;28;20210;-75
2022/10/12 05:25:54;;;;;;;11.27;4.55;;;;;;;5.42;100.00;101163.94;5082347;28;20233;-74
2022/10/12 05:28:21;;;;;;;10.77;4.80;;;;;;;5.44;100.00;101161.25;5075596;28;20196;-77
2022/10/12 05:30:49;;;;;;;32.50;18.20;;;;;;;5.55;100.00;101158.47;5075597;28;20378;-75
2022/10/12 05:33:16;;;;;;;21.55;11.15;;;;;;;5.56;100.00;101166.47;5076093;28;20278;-73
2022/10/12 05:35:43;;;;;;;17.27;6.75;;;;;;;5.65;100.00;101168.09;5083377;28;20240;-74
2022/10/12 05:38:11;;;;;;;15.85;4.85;;;;;;;5.71;100.00;101164.50;5079629;28;20218;-75
2022/10/12 05:40:37;;;;;;;13.85;5.40;;;;;;;5.78;100.00;101159.03;5079107;28;20549;-75
2022/10/12 05:43:04;;;;;;;10.07;6.15;;;;;;;5.81;100.00;101152.75;5078750;28;20206;-77
2022/10/12 05:45:31;;;;;;;9.57;5.30;;;;;;;5.93;100.00;101163.28;5075670;28;20216;-76
2022/10/12 05:47:57;;;;;;;9.57;5.35;;;;;;;5.91;100.00;101164.22;5075486;28;20211;-76
2022/10/12 05:50:24;;;;;;;30.17;17.00;;;;;;;5.85;100.00;101159.84;5075005;28;20205;-76
2022/10/12 05:52:50;;;;;;;25.05;9.10;;;;;;;5.94;100.00;101162.41;5074913;28;20711;-76
2022/10/12 05:55:18;;;;;;;19.55;6.65;;;;;;;6.00;100.00;101165.00;5075070;28;20200;-75
2022/10/12 05:57:45;;;;;;;13.88;7.05;;;;;;;6.05;100.00;101157.78;5074869;28;20204;-75
2022/10/12 06:00:12;;;;;;;13.18;6.05;;;;;;;6.12;100.00;101165.72;5077368;28;20238;-77
2022/10/12 06:02:39;;;;;;;11.40;5.95;;;;;;;6.15;100.00;101163.91;5074331;28;20211;-75
2022/10/12 06:05:06;;;;;;;19.40;5.47;;;;;;;6.25;100.00;101160.16;5079832;28;20207;-75
2022/10/12 06:07:32;;;;;;;11.27;5.40;;;;;;;6.36;100.00;101162.69;5077916;28;20204;-75
2022/10/12 06:09:59;;;;;;;13.95;5.90;;;;;;;6.51;100.00;101166.00;5074848;28;20646;-76
2022/10/12 06:12:27;;;;;;;12.13;6.15;;;;;;;6.71;100.00;101169.22;5075135;28;20232;-76
2022/10/12 06:14:54;;;;;;;21.35;12.63;;;;;;;6.79;100.00;101159.28;5075318;28;20211;-78
2022/10/12 06:17:20;;;;;;;27.15;15.52;;;;;;;6.81;100.00;101154.78;5075132;28;20227;-76
2022/10/12 06:19:47;;;;;;;29.50;15.32;;;;;;;6.89;100.00;101154.66;5074840;28;20291;-75
2022/10/12 06:22:14;;;;;;;27.48;14.88;;;;;;;7.02;100.00;101155.31;5075683;28;20513;-75
2022/10/12 06:24:40;;;;;;;25.08;13.57;;;;;;;7.07;100.00;101156.97;5074950;28;20223;-74
2022/10/12 06:27:07;;;;;;;21.65;10.80;;;;;;;7.10;100.00;101153.38;5075515;28;20225;-75
2022/10/12 06:29:35;;;;;;;18.42;9.73;;;;;;;7.09;100.00;101147.13;5074921;28;20200;-76
2022/10/12 06:32:02;;;;;;;15.35;8.52;;;;;;;7.17;100.00;101155.03;5076728;28;20258;-75
2022/10/12 06:34:28;;;;;;;11.90;6.70;;;;;;;7.34;100.00;101154.69;5079646;28;20235;-74
2022/10/12 06:36:55;;;;;;;15.65;7.07;;;;;;;7.52;100.00;101153.44;5078603;28;20263;-74
2022/10/12 06:39:24;;;;;;;9.95;5.55;;;;;;;7.70;100.00;101153.03;5080213;28;20598;-74
2022/10/12 06:41:53;;;;;;;10.05;5.68;;;;;;;7.83;100.00;101152.78;5095588;28;20252;-74
2022/10/12 06:44:21;;;;;;;11.77;6.18;;;;;;;7.98;100.00;101157.78;5092167;28;20205;-74
2022/10/12 06:46:49;;;;;;;13.88;6.30;;;;;;;8.27;100.00;101154.41;5087443;28;20255;-74
2022/10/12 06:49:16;;;;;;;12.27;6.93;;;;;;;8.59;100.00;101160.84;5077636;28;20246;-74
2022/10/12 06:51:43;;;;;;;16.10;9.40;;;;;;;8.79;100.00;101154.09;5074467;28;20676;-76
2022/10/12 06:54:10;;;;;;;11.63;7.22;;;;;;;9.02;100.00;101151.66;5078360;28;20315;-75
2022/10/12 06:56:38;;;;;;;11.13;6.45;;;;;;;9.27;100.00;101157.28;5096535;28;20652;-74
2022/10/12 06:59:05;;;;;;;9.43;5.75;;;;;;;9.85;100.00;101148.41;5096831;28;20194;-75
2022/10/12 07:01:32;;;;;;;11.68;5.75;;;;;;;10.58;100.00;101148.81;5097123;28;20207;-75
2022/10/12 07:04:00;;;;;;;11.88;5.70;;;;;;;11.35;100.00;101137.13;5096780;28;20214;-74
2022/10/12 07:06:27;;;;;;;11.43;5.78;;;;;;;12.13;100.00;101139.56;5096772;28;20579;-73
2022/10/12 07:08:54;;;;;;;15.60;6.05;;;;;;;12.70;100.00;101143.47;5096992;28;20194;-74
2022/10/12 07:11:22;;;;;;;18.30;6.05;;;;;;;13.70;99.28;101138.19;5097065;28;20211;-74
2022/10/12 07:13:48;;;;;;;12.10;6.00;;;;;;;14.73;88.65;101144.06;5099769;28;20329;-73
2022/10/12 07:16:15;;;;;;;9.90;5.90;;;;;;;15.64;78.51;101140.16;5100664;28;20205;-75
2022/10/12 07:18:42;;;;;;;11.27;5.20;;;;;;;16.04;70.73;101141.56;5100841;28;20248;-74
2022/10/12 07:21:10;;;;;;;10.60;5.05;;;;;;;16.75;67.68;101147.47;5100906;28;20187;-74
2022/10/12 07:23:37;;;;;;;8.55;5.03;;;;;;;17.00;63.18;101142.34;5100862;28;20181;-75
2022/10/12 07:26:04;;;;;;;8.30;4.80;;;;;;;17.20;62.13;101146.56;5100552;28;20206;-72
2022/10/12 07:28:31;;;;;;;9.45;4.60;;;;;;;17.90;59.42;101141.28;5100333;28;20264;-74
2022/10/12 07:31:01;;;;;;;8.25;4.72;;;;;;;17.58;59.41;101151.50;5100639;28;20220;-74
2022/10/12 07:33:31;;;;;;;7.43;4.70;;;;;;;18.21;57.32;101147.50;5100610;28;20189;-75
2022/10/12 07:35:57;;;;;;;10.77;5.03;;;;;;;18.82;54.24;101149.88;5100536;28;20246;-75
2022/10/12 07:38:25;;;;;;;8.45;4.28;;;;;;;18.81;54.44;101148.09;5100450;28;20184;-75
2022/10/12 07:40:53;;;;;;;10.07;4.40;;;;;;;19.32;51.79;101150.94;5100445;28;20181;-76
2022/10/12 07:43:19;;;;;;;7.10;4.30;;;;;;;19.95;49.65;101152.81;5092928;28;20583;-75
2022/10/12 07:45:46;;;;;;;10.03;4.27;;;;;;;20.06;48.74;101153.88;5087567;28;20499;-74
2022/10/12 07:48:12;;;;;;;7.43;3.90;;;;;;;19.85;48.88;101151.72;5089321;28;20524;-74
2022/10/12 07:50:39;;;;;;;8.57;4.33;;;;;;;20.40;48.00;101150.41;5086916;28;20444;-74
2022/10/12 07:53:06;;;;;;;7.80;4.30;;;;;;;20.38;47.32;101148.78;5091005;28;20468;-74
2022/10/12 07:55:34;;;;;;;9.37;3.57;;;;;;;20.69;46.17;101155.56;5088927;28;20993;-76
2022/10/12 07:58:01;;;;;;;5.40;4.00;;;;;;;21.29;44.81;101156.41;5087263;28;20509;-75
2022/10/12 08:00:29;;;;;;;5.10;3.60;;;;;;;21.32;44.78;101160.78;5088032;28;20505;-75
2022/10/12 08:02:55;;;;;;;7.40;4.10;;;;;;;21.84;43.69;101159.38;5085721;28;20443;-75
2022/10/12 08:05:22;;;;;;;5.37;3.87;;;;;;;22.19;42.16;101152.91;5087766;28;20523;-74
2022/10/12 08:07:49;;;;;;;7.90;4.30;;;;;;;22.76;41.19;101157.28;5089106;28;20466;-74
2022/10/12 08:10:16;;;;;;;6.50;3.80;;;;;;;23.28;39.98;101158.31;5085804;28;20445;-76
2022/10/12 08:12:46;;;;;;;8.03;4.07;;;;;;;23.50;40.03;101165.56;5089476;28;20518;-74
2022/10/12 08:15:13;;;;;;;5.90;4.77;;;;;;;23.98;38.95;101164.09;5076297;28;20442;-75
2022/10/12 08:17:40;;;;;;;7.07;3.80;;;;;;;24.50;37.72;101166.78;5091206;28;20441;-75
2022/10/12 08:20:07;;;;;;;9.30;3.90;;;;;;;24.55;37.65;101162.56;5090887;28;20881;-78
2022/10/12 08:22:34;;;;;;;5.10;3.80;;;;;;;24.61;37.54;101163.91;5091233;28;20499;-77
2022/10/12 08:25:00;;;;;;;7.93;4.33;;;;;;;25.00;36.94;101165.81;5092321;28;20470;-76
2022/10/12 08:27:30;;;;;;;5.23;3.80;;;;;;;25.48;36.36;101165.78;5079650;28;20480;-74
2022/10/12 08:29:58;;;;;;;13.40;7.07;;;;;;;25.41;35.90;101161.88;5076010;28;20427;-75
2022/10/12 08:32:24;;;;;;;6.90;5.07;;;;;;;25.54;36.26;101159.69;5076548;28;20435;-75
2022/10/12 08:34:51;;;;;;;7.70;3.97;;;;;;;25.49;36.14;101164.78;5076554;28;20573;-74
2022/10/12 08:37:18;;;;;;;6.97;4.33;;;;;;;24.88;36.53;101157.69;5077121;28;20462;-76
2022/10/12 08:39:44;;;;;;;8.73;4.80;;;;;;;25.12;37.10;101157.28;5077361;28;20514;-75
2022/10/12 08:42:25;;;;;;;8.30;4.37;;;;;;;25.86;35.63;101161.19;5078449;28;20533;-75
2022/10/12 08:45:27;;;;;;;5.67;3.87;;;;;;;25.91;35.58;101156.13;5075943;28;20790;-74
2022/10/12 08:47:59;;;;;;;6.20;3.97;;;;;;;25.76;35.50;101152.09;5078388;28;20415;-75
2022/10/12 08:50:31;;;;;;;7.53;4.63;;;;;;;25.86;35.87;101158.44;5074687;28;20432;-74
2022/10/12 08:53:04;;;;;;;9.90;4.70;;;;;;;26.03;35.24;101150.41;5075205;28;20440;-75
2022/10/12 08:55:36;;;;;;;9.37;4.70;;;;;;;26.73;34.35;101154.41;5074780;28;20455;-75
2022/10/12 08:58:03;;;;;;;10.23;4.23;;;;;;;26.98;33.99;101154.66;5076204;28;20445;-74
2022/10/12 09:00:33;;;;;;;10.33;5.80;;;;;;;25.98;35.16;101154.50;5076699;28;20465;-74
2022/10/12 09:03:13;;;;;;;12.57;7.23;;;;;;;26.31;35.25;101156.81;5077008;28;20452;-76
2022/10/12 09:05:48;;;;;;;7.60;5.27;;;;;;;27.52;33.61;101158.25;5094865;28;20462;-75
2022/10/12 09:08:31;;;;;;;8.10;4.53;;;;;;;27.82;33.00;101159.63;5076781;28;20468;-76
2022/10/12 09:11:06;;;;;;;7.53;4.47;;;;;;;27.96;32.96;101158.19;5085925;28;20481;-75
2022/10/12 09:13:46;;;;;;;7.30;4.67;;;;;;;27.70;33.11;101154.53;5081151;28;20522;-74
2022/10/12 09:16:21;;;;;;;5.67;4.43;;;;;;;29.00;31.97;101156.97;5080411;28;20469;-76
2022/10/12 09:18:52;;;;;;;7.80;4.70;;;;;;;29.45;31.41;101155.63;5077069;28;20422;-77
2022/10/12 09:21:21;;;;;;;7.00;4.10;;;;;;;29.60;30.91;101154.91;5074824;28;20416;-75
2022/10/12 09:23:49;;;;;;;6.53;3.80;;;;;;;30.22;30.25;101162.56;5058721;28;20477;-74
2022/10/12 09:26:18;;;;;;;7.63;4.47;;;;;;;30.03;30.02;101167.50;5079182;28;20553;-75
2022/10/12 09:28:47;;;;;;;5.17;4.37;;;;;;;29.36;31.09;101156.66;5075987;28;20439;-75
2022/10/12 09:31:42;;;;;;;8.07;4.70;;;;;;;29.98;30.59;101152.41;5077836;28;20525;-76
2022/10/12 09:34:09;;;;;;;6.70;4.57;;;;;;;30.46;30.25;101145.81;5083875;28;20926;-75
2022/10/12 09:36:38;;;;;;;6.70;4.60;;;;;;;30.24;30.11;101143.81;5097263;28;20771;-76
2022/10/12 09:39:10;;;;;;;11.53;5.30;;;;;;;30.04;30.76;101144.22;5097192;28;20570;-75
2022/10/12 09:41:41;;;;;;;6.03;4.13;;;;;;;30.47;30.36;101141.97;5107676;28;20443;-74
2022/10/12 09:44:15;;;;;;;6.37;4.60;;;;;;;30.98;29.83;101137.84;5111204;28;20430;-74
2022/10/12 09:46:48;;;;;;;6.33;4.43;;;;;;;30.69;29.83;101136.66;5105948;28;20544;-74
2022/10/12 09:49:14;;;;;;;8.77;4.30;;;;;;;31.12;29.48;101134.28;5100923;28;20422;-76
2022/10/12 09:51:41;;;;;;;7.73;5.07;;;;;;;31.05;29.64;101130.50;5098607;28;20434;-75
2022/10/12 09:54:18;;;;;;;11.00;5.13;;;;;;;29.27;31.37;101133.63;5094891;28;20477;-74
2022/10/12 09:56:50;;;;;;;7.23;4.90;;;;;;;30.74;29.94;101125.84;5094185;28;20469;-75
2022/10/12 09:59:27;;;;;;;8.60;4.80;;;;;;;31.58;29.04;101132.28;5094799;28;20425;-74
2022/10/12 10:02:13;;;;;;;6.23;5.23;;;;;;;31.74;28.85;101128.47;5094737;28;20836;-75
2022/10/12 10:04:41;;;;;;;8.60;4.67;;;;;;;31.68;28.85;101132.03;5094329;28;20513;-75
2022/10/12 10:07:23;;;;;;;5.90;4.37;;;;;;;32.17;28.58;101120.31;5075763;28;20475;-75
2022/10/12 10:10:14;;;;;;;7.40;4.90;;;;;;;33.27;27.84;101123.06;5074279;28;20431;-75
2022/10/12 10:12:48;;;;;;;5.10;4.20;;;;;;;33.28;27.91;101127.56;5074953;28;20423;-76
2022/10/12 10:15:24;;;;;;;7.43;4.70;;;;;;;33.63;27.41;101134.97;5076196;28;20870;-76
2022/10/12 10:17:55;;;;;;;6.53;4.20;;;;;;;32.78;28.05;101125.56;5074352;28;20434;-74
2022/10/12 10:20:32;;;;;;;7.67;5.30;;;;;;;32.99;27.79;101121.03;5074987;28;20415;-74
2022/10/12 10:23:00;;;;;;;8.03;5.20;;;;;;;32.36;29.02;101115.19;5075413;28;20851;-75
2022/10/12 10:25:27;;;;;;;5.03;4.53;;;;;;;31.52;29.35;101119.16;5075384;28;21028;-74
2022/10/12 10:28:20;;;;;;;7.80;5.50;;;;;;;32.66;28.88;101109.56;5073291;28;20460;-76
2022/10/12 10:30:56;;;;;;;7.87;5.17;;;;;;;33.60;27.60;101123.34;5074202;28;20438;-75
2022/10/12 10:33:24;;;;;;;6.30;4.70;;;;;;;34.06;27.10;101126.44;5073272;28;20430;-76
2022/10/12 10:36:03;;;;;;;8.50;4.60;;;;;;;33.13;28.02;101130.44;5086583;23;20466;-74
2022/10/12 10:38:32;;;;;;;5.40;4.27;;;;;;;33.62;27.69;101126.78;5074713;28;20466;-75
2022/10/12 10:41:02;;;;;;;8.57;5.10;;;;;;;33.89;27.03;101125.03;5070665;28;20503;-76
2022/10/12 10:43:31;;;;;;;9.37;4.87;;;;;;;33.84;27.34;101122.84;5060074;28;20451;-74
2022/10/12 10:46:02;;;;;;;6.27;5.23;;;;;;;34.40;26.94;101121.03;5053652;28;21018;-77
2022/10/12 10:48:33;;;;;;;6.23;4.70;;;;;;;34.55;26.64;101116.09;5038134;28;21296;-74
2022/10/12 10:51:02;;;;;;;8.20;5.00;;;;;;;34.61;26.67;101118.09;5036423;28;20432;-76
2022/10/12 10:53:32;;;;;;;7.97;4.80;;;;;;;34.85;26.32;101116.66;5038166;28;20455;-76
2022/10/12 10:56:05;;;;;;;8.27;5.10;;;;;;;34.67;26.63;101108.00;5037650;28;20468;-76
2022/10/12 10:58:36;;;;;;;7.90;5.00;;;;;;;33.59;27.63;101113.25;5036882;28;20436;-76
2022/10/12 11:01:12;;;;;;;11.67;5.10;;;;;;;34.58;26.66;101107.31;5036213;28;20455;-75
2022/10/12 11:03:49;;;;;;;6.87;4.80;;;;;;;34.81;26.22;101095.75;5025078;28;20457;-74
2022/10/12 11:06:23;;;;;;;7.40;5.40;;;;;;;35.63;25.68;101102.06;5036543;28;20445;-75
2022/10/12 11:08:55;;;;;;;9.40;5.20;;;;;;;35.41;25.92;101098.63;5018410;28;20429;-76
2022/10/12 11:11:25;;;;;;;9.00;8.10;;;;;;;35.11;26.05;101092.56;5023481;28;20464;-74
2022/10/12 11:13:56;;;;;;;11.20;7.00;;;;;;;34.39;26.72;101091.31;5037358;28;20446;-76
2022/10/12 11:16:30;;;;;;;8.33;4.80;;;;;;;35.42;26.01;101086.34;5035853;28;20464;-77
2022/10/12 11:19:02;;;;;;;6.00;4.40;;;;;;;35.38;26.07;101085.03;5034531;28;20440;-75
2022/10/12 11:21:32;;;;;;;8.40;4.63;;;;;;;35.62;25.90;101085.47;5035917;28;20503;-76
2022/10/12 11:24:05;;;;;;;8.30;5.10;;;;;;;35.82;25.87;101089.09;5033036;28;20433;-77
2022/10/12 11:26:36;;;;;;;6.33;4.77;;;;;;;36.28;25.27;101079.66;5033661;28;20465;-74
2022/10/12 11:29:04;;;;;;;7.30;4.70;;;;;;;35.80;25.79;101079.16;5033016;28;20417;-77
2022/10/12 11:31:36;;;;;;;5.47;4.40;;;;;;;36.36;25.20;101066.47;5032500;28;20440;-77